createdAt,value
2022-12-25T00:01:23.936Z,1.00
2022-12-25T00:03:52.191Z,0.70
2022-12-25T00:06:20.233Z,0.80
2022-12-25T00:08:47.339Z,0.60
2022-12-25T00:11:17.149Z,0.63
2022-12-25T00:13:44.723Z,0.70
2022-12-25T00:16:32.151Z,0.50
2022-12-25T00:19:00.947Z,0.60
2022-12-25T00:21:28.324Z,0.63
2022-12-25T00:23:57.148Z,0.60
2022-12-25T00:26:25.991Z,0.60
2022-12-25T00:28:57.518Z,0.63
2022-12-25T00:31:25.868Z,0.50
2022-12-25T00:33:53.417Z,0.60
2022-12-25T00:36:25.232Z,0.63
2022-12-25T00:38:52.469Z,0.55
2022-12-25T00:41:42.527Z,0.70
2022-12-25T00:44:12.727Z,1.00
2022-12-25T00:46:40.720Z,0.70
2022-12-25T00:49:08.201Z,1.20
2022-12-25T00:51:35.361Z,0.98
2022-12-25T00:54:02.529Z,0.90
2022-12-25T00:56:29.673Z,0.80
2022-12-25T00:58:56.952Z,1.13
2022-12-25T01:01:24.159Z,0.80
2022-12-25T01:03:51.309Z,0.80
2022-12-25T01:06:18.528Z,0.65
2022-12-25T01:09:03.994Z,0.68
2022-12-25T01:11:31.295Z,0.70
2022-12-25T01:13:58.733Z,0.90
2022-12-25T01:16:26.353Z,0.73
2022-12-25T01:18:53.707Z,0.70
2022-12-25T01:21:21.778Z,0.82
2022-12-25T01:23:50.614Z,0.70
2022-12-25T01:26:19.578Z,0.80
2022-12-25T01:28:46.980Z,0.70
2022-12-25T01:31:17.091Z,1.00
2022-12-25T01:33:45.431Z,1.00
2022-12-25T01:36:18.693Z,0.70
2022-12-25T01:38:46.174Z,0.70
2022-12-25T01:41:15.491Z,0.55
2022-12-25T01:44:00.676Z,0.57
2022-12-25T01:46:28.016Z,0.95
2022-12-25T01:49:26.600Z,0.63
2022-12-25T01:51:57.380Z,0.80
2022-12-25T01:54:31.705Z,0.60
2022-12-25T01:57:02.874Z,0.85
2022-12-25T01:59:30.296Z,0.63
2022-12-25T02:01:58.241Z,0.70
2022-12-25T02:04:40.937Z,1.00
2022-12-25T02:07:17.932Z,0.80
2022-12-25T02:09:45.725Z,0.75
2022-12-25T02:12:22.179Z,0.90
2022-12-25T02:14:51.712Z,1.02
2022-12-25T02:17:34.697Z,0.82
2022-12-25T02:20:13.820Z,0.80
2022-12-25T02:23:15.060Z,1.15
2022-12-25T02:26:13.601Z,0.93
2022-12-25T02:29:15.881Z,1.05
2022-12-25T02:32:05.324Z,0.80
2022-12-25T02:35:12.913Z,0.82
2022-12-25T02:38:01.977Z,0.70
2022-12-25T02:40:50.246Z,0.95
2022-12-25T02:43:47.985Z,0.88
2022-12-25T02:46:37.304Z,0.98
2022-12-25T02:49:27.944Z,1.02
2022-12-25T02:52:24.245Z,0.80
2022-12-25T02:55:17.752Z,1.02
2022-12-25T02:58:07.230Z,0.88
2022-12-25T03:01:03.113Z,0.90
2022-12-25T03:03:52.001Z,0.80
2022-12-25T03:06:39.381Z,1.20
2022-12-25T03:09:27.896Z,1.23
2022-12-25T03:12:17.782Z,1.10
2022-12-25T03:15:04.164Z,1.23
2022-12-25T03:17:33.455Z,0.70
2022-12-25T03:20:19.111Z,1.00
2022-12-25T03:23:06.449Z,0.98
2022-12-25T03:25:52.577Z,0.80
2022-12-25T03:28:19.941Z,0.88
2022-12-25T03:31:15.117Z,0.82
2022-12-25T03:34:22.765Z,0.73
2022-12-25T03:37:20.751Z,1.10
2022-12-25T03:40:34.480Z,0.73
2022-12-25T03:43:43.460Z,0.80
2022-12-25T03:46:35.183Z,1.00
2022-12-25T03:49:30.422Z,1.20
2022-12-25T03:52:20.483Z,1.50
2022-12-25T03:55:08.262Z,1.00
2022-12-25T03:57:54.753Z,1.30
2022-12-25T04:00:40.571Z,1.48
2022-12-25T04:03:26.229Z,1.10
2022-12-25T04:06:11.602Z,1.05
2022-12-25T04:08:57.141Z,1.35
2022-12-25T04:11:42.675Z,1.30
2022-12-25T04:14:28.209Z,1.23
2022-12-25T04:17:13.755Z,1.55
2022-12-25T04:19:59.315Z,1.20
2022-12-25T04:22:44.761Z,1.42
2022-12-25T04:25:30.410Z,1.58
2022-12-25T04:28:22.971Z,1.30
2022-12-25T04:31:08.623Z,1.10
2022-12-25T04:33:54.144Z,1.25
2022-12-25T04:36:21.849Z,1.67
2022-12-25T04:38:48.918Z,1.50
2022-12-25T04:41:16.180Z,1.60
2022-12-25T04:43:43.370Z,1.50
2022-12-25T04:46:10.546Z,1.75
2022-12-25T04:48:37.983Z,1.80
2022-12-25T04:51:16.840Z,2.10
2022-12-25T04:53:45.378Z,1.77
2022-12-25T04:56:13.179Z,1.83
2022-12-25T04:58:40.874Z,1.55
2022-12-25T05:01:08.098Z,1.38
2022-12-25T05:03:35.891Z,1.25
2022-12-25T05:06:03.743Z,1.73
2022-12-25T05:08:32.788Z,1.08
2022-12-25T05:11:00.596Z,1.30
2022-12-25T05:13:27.702Z,1.13
2022-12-25T05:15:54.813Z,1.90
2022-12-25T05:18:22.116Z,1.45
2022-12-25T05:20:54.072Z,1.42
2022-12-25T05:23:22.063Z,1.08
2022-12-25T05:25:49.239Z,0.95
2022-12-25T05:28:16.885Z,1.17
2022-12-25T05:30:44.443Z,1.70
2022-12-25T05:33:11.638Z,1.35
2022-12-25T05:35:39.420Z,1.10
2022-12-25T05:38:07.713Z,1.10
2022-12-25T05:40:38.440Z,1.67
2022-12-25T05:43:05.647Z,1.40
2022-12-25T05:45:32.847Z,1.38
2022-12-25T05:48:00.004Z,1.98
2022-12-25T05:50:27.152Z,1.00
2022-12-25T05:53:09.007Z,1.27
2022-12-25T05:55:37.716Z,1.48
2022-12-25T05:58:06.005Z,1.58
2022-12-25T06:00:33.361Z,1.33
2022-12-25T06:03:00.928Z,1.33
2022-12-25T06:05:28.295Z,1.30
2022-12-25T06:07:56.046Z,1.20
2022-12-25T06:10:23.526Z,1.15
2022-12-25T06:12:50.831Z,1.10
2022-12-25T06:15:18.109Z,1.30
2022-12-25T06:17:45.204Z,1.35
2022-12-25T06:20:12.368Z,1.50
2022-12-25T06:22:39.491Z,1.55
2022-12-25T06:25:08.552Z,1.20
2022-12-25T06:27:35.703Z,1.50
2022-12-25T06:30:03.284Z,1.25
2022-12-25T06:32:30.468Z,1.55
2022-12-25T06:34:57.579Z,1.08
2022-12-25T06:37:25.287Z,0.90
2022-12-25T06:39:52.540Z,1.10
2022-12-25T06:42:19.672Z,1.30
2022-12-25T06:44:46.834Z,0.80
2022-12-25T06:47:13.969Z,0.90
2022-12-25T06:49:42.009Z,1.35
2022-12-25T06:52:09.312Z,0.98
2022-12-25T06:54:36.944Z,0.90
2022-12-25T06:57:04.093Z,1.00
2022-12-25T06:59:31.311Z,1.05
2022-12-25T07:01:59.009Z,0.80
2022-12-25T07:04:35.863Z,0.95
2022-12-25T07:07:08.749Z,1.00
2022-12-25T07:09:39.120Z,1.10
2022-12-25T07:12:16.166Z,1.05
2022-12-25T07:14:44.282Z,0.73
2022-12-25T07:17:11.742Z,0.80
2022-12-25T07:19:44.686Z,1.00
2022-12-25T07:22:13.120Z,1.15
2022-12-25T07:24:40.217Z,0.80
2022-12-25T07:27:08.476Z,1.67
2022-12-25T07:29:35.787Z,0.98
2022-12-25T07:32:03.261Z,1.17
2022-12-25T07:34:30.503Z,1.20
2022-12-25T07:36:57.773Z,1.40
2022-12-25T07:39:24.890Z,1.55
2022-12-25T07:41:52.110Z,1.27
2022-12-25T07:44:19.433Z,1.17
2022-12-25T07:46:46.633Z,0.90
2022-12-25T07:49:13.846Z,0.90
2022-12-25T07:51:41.014Z,0.98
2022-12-25T07:54:08.275Z,1.15
2022-12-25T07:56:36.689Z,0.73
2022-12-25T07:59:04.053Z,0.90
2022-12-25T08:01:31.486Z,0.80
2022-12-25T08:04:01.220Z,0.63
2022-12-25T08:06:34.831Z,1.75
2022-12-25T08:09:08.691Z,1.05
2022-12-25T08:11:36.613Z,2.50
2022-12-25T08:14:07.143Z,2.97
2022-12-25T08:16:35.073Z,3.85
2022-12-25T08:19:02.131Z,2.67
2022-12-25T08:21:29.296Z,4.93
2022-12-25T08:23:56.471Z,5.93
2022-12-25T08:26:24.064Z,3.35
2022-12-25T08:28:51.630Z,2.22
2022-12-25T08:31:28.314Z,1.88
2022-12-25T08:33:57.874Z,2.25
2022-12-25T08:36:25.202Z,1.50
2022-12-25T08:38:55.689Z,1.52
2022-12-25T08:41:26.167Z,1.30
2022-12-25T08:43:54.112Z,1.08
2022-12-25T08:46:21.361Z,1.25
2022-12-25T08:48:49.982Z,1.10
2022-12-25T08:51:20.601Z,1.75
2022-12-25T08:53:49.179Z,1.95
2022-12-25T08:56:17.259Z,1.15
2022-12-25T08:58:45.087Z,1.30
2022-12-25T09:01:13.500Z,2.72
2022-12-25T09:03:40.993Z,2.00
2022-12-25T09:06:11.496Z,1.60
2022-12-25T09:08:45.880Z,1.98
2022-12-25T09:11:16.336Z,2.10
2022-12-25T09:13:43.653Z,1.90
2022-12-25T09:16:14.722Z,2.05
2022-12-25T09:18:42.268Z,1.58
2022-12-25T09:21:12.472Z,1.80
2022-12-25T09:23:40.459Z,1.42
2022-12-25T09:26:10.422Z,1.27
2022-12-25T09:28:37.721Z,1.75
2022-12-25T09:31:05.772Z,1.13
2022-12-25T09:33:33.109Z,1.25
2022-12-25T09:36:03.373Z,2.08
2022-12-25T09:38:30.822Z,1.10
2022-12-25T09:41:13.442Z,1.35
2022-12-25T09:43:51.581Z,1.77
2022-12-25T09:46:23.544Z,1.50
2022-12-25T09:49:22.678Z,1.05
2022-12-25T09:51:56.773Z,1.13
2022-12-25T09:54:44.367Z,0.93
2022-12-25T09:57:13.373Z,1.20
2022-12-25T09:59:43.713Z,1.30
2022-12-25T10:02:23.109Z,1.00
2022-12-25T10:05:20.987Z,1.23
2022-12-25T10:08:31.183Z,1.00
2022-12-25T10:11:04.411Z,1.48
2022-12-25T10:13:34.552Z,1.20
2022-12-25T10:16:23.747Z,1.20
2022-12-25T10:19:23.491Z,1.30
2022-12-25T10:21:54.992Z,1.00
2022-12-25T10:24:36.856Z,1.20
2022-12-25T10:27:13.507Z,2.00
2022-12-25T10:29:41.763Z,1.70
2022-12-25T10:32:10.468Z,3.05
2022-12-25T10:34:41.431Z,1.23
2022-12-25T10:37:13.283Z,1.33
2022-12-25T10:39:46.005Z,1.45
2022-12-25T10:42:40.930Z,1.50
2022-12-25T10:45:09.571Z,1.05
2022-12-25T10:47:42.288Z,1.70
2022-12-25T10:50:09.890Z,1.38
2022-12-25T10:52:51.324Z,1.38
2022-12-25T10:55:26.622Z,1.40
2022-12-25T10:57:55.895Z,2.10
2022-12-25T11:00:28.435Z,1.45
2022-12-25T11:02:56.243Z,1.48
2022-12-25T11:05:28.641Z,1.40
2022-12-25T11:07:57.082Z,1.83
2022-12-25T11:10:28.749Z,1.38
2022-12-25T11:12:56.135Z,1.80
2022-12-25T11:15:34.962Z,0.90
2022-12-25T11:18:02.868Z,1.20
2022-12-25T11:20:29.898Z,1.80
2022-12-25T11:22:57.103Z,3.78
2022-12-25T11:25:26.909Z,2.80
2022-12-25T11:28:05.413Z,2.47
2022-12-25T11:30:34.693Z,1.90
2022-12-25T11:33:07.970Z,1.98
2022-12-25T11:35:53.017Z,1.63
2022-12-25T11:38:20.361Z,1.30
2022-12-25T11:40:54.167Z,1.95
2022-12-25T11:43:25.641Z,2.22
2022-12-25T11:45:59.545Z,1.95
2022-12-25T11:48:56.084Z,2.13
2022-12-25T11:51:30.856Z,2.40
2022-12-25T11:54:14.793Z,3.50
2022-12-25T11:56:42.578Z,2.03
2022-12-25T11:59:17.799Z,2.58
2022-12-25T12:02:03.898Z,3.20
2022-12-25T12:04:43.170Z,3.85
2022-12-25T12:07:24.269Z,4.15
2022-12-25T12:09:54.692Z,4.95
2022-12-25T12:12:52.955Z,5.65
2022-12-25T12:15:43.142Z,6.50
2022-12-25T12:18:31.045Z,4.20
2022-12-25T12:21:22.401Z,4.70
2022-12-25T12:24:02.083Z,2.75
2022-12-25T12:26:34.738Z,2.83
2022-12-25T12:29:03.473Z,2.50
2022-12-25T12:31:49.673Z,2.70
2022-12-25T12:34:27.515Z,2.80
2022-12-25T12:37:01.939Z,2.45
2022-12-25T12:39:38.167Z,2.45
2022-12-25T12:42:21.191Z,2.75
2022-12-25T12:44:50.175Z,4.75
2022-12-25T12:47:41.131Z,2.60
2022-12-25T12:50:29.734Z,2.85
2022-12-25T12:52:56.982Z,1.55
2022-12-25T12:55:30.391Z,1.77
2022-12-25T12:58:02.375Z,2.28
2022-12-25T13:00:46.610Z,1.88
2022-12-25T13:03:16.658Z,1.63
2022-12-25T13:05:57.403Z,1.42
2022-12-25T13:08:43.486Z,1.83
2022-12-25T13:11:20.094Z,1.60
2022-12-25T13:13:50.274Z,2.13
2022-12-25T13:16:27.891Z,1.80
2022-12-25T13:18:56.723Z,1.70
2022-12-25T13:21:29.293Z,2.10
2022-12-25T13:24:09.035Z,1.63
2022-12-25T13:26:36.506Z,1.52
2022-12-25T13:29:11.046Z,1.60
2022-12-25T13:31:41.344Z,1.55
2022-12-25T13:34:39.545Z,1.33
2022-12-25T13:37:14.449Z,0.73
2022-12-25T13:40:20.114Z,0.90
2022-12-25T13:42:49.427Z,0.80
2022-12-25T13:45:26.342Z,2.03
2022-12-25T13:47:55.705Z,2.33
2022-12-25T13:50:34.163Z,3.50
2022-12-25T13:53:17.092Z,4.45
2022-12-25T13:55:52.505Z,3.20
2022-12-25T13:58:24.858Z,4.57
2022-12-25T14:00:55.209Z,3.58
2022-12-25T14:03:42.213Z,4.07
2022-12-25T14:06:28.802Z,3.45
2022-12-25T14:08:58.424Z,2.30
2022-12-25T14:11:29.308Z,2.25
2022-12-25T14:14:04.235Z,1.73
2022-12-25T14:16:31.568Z,1.50
2022-12-25T14:19:01.273Z,1.17
2022-12-25T14:21:38.699Z,1.13
2022-12-25T14:24:14.242Z,0.95
2022-12-25T14:26:41.596Z,1.42
2022-12-25T14:29:17.164Z,5.50
2022-12-25T14:31:47.095Z,7.75
2022-12-25T14:34:26.201Z,5.45
2022-12-25T14:36:53.760Z,5.38
2022-12-25T14:39:38.289Z,6.78
2022-12-25T14:42:19.570Z,2.00
2022-12-25T14:44:59.136Z,1.38
2022-12-25T14:47:27.138Z,1.17
2022-12-25T14:49:54.780Z,2.47
2022-12-25T14:52:45.406Z,1.00
2022-12-25T14:55:22.709Z,1.13
2022-12-25T14:57:53.526Z,1.80
2022-12-25T15:00:31.749Z,1.83
2022-12-25T15:03:00.524Z,1.60
2022-12-25T15:05:37.923Z,1.60
2022-12-25T15:08:25.249Z,1.15
2022-12-25T15:11:00.419Z,0.80
2022-12-25T15:13:32.028Z,0.88
2022-12-25T15:16:16.026Z,0.75
2022-12-25T15:18:45.496Z,0.80
2022-12-25T15:21:44.481Z,0.73
2022-12-25T15:24:15.885Z,1.10
2022-12-25T15:26:43.252Z,0.77
2022-12-25T15:29:10.707Z,0.70
2022-12-25T15:31:39.207Z,0.68
2022-12-25T15:34:20.913Z,0.50
2022-12-25T15:36:48.745Z,0.77
2022-12-25T15:39:15.891Z,0.70
2022-12-25T15:42:01.462Z,0.50
2022-12-25T15:44:28.861Z,0.50
2022-12-25T15:46:57.181Z,0.70
2022-12-25T15:49:24.288Z,0.70
2022-12-25T15:51:51.454Z,0.80
2022-12-25T15:54:18.761Z,0.60
2022-12-25T15:56:54.884Z,1.40
2022-12-25T15:59:22.823Z,0.90
2022-12-25T16:01:58.840Z,0.90
2022-12-25T16:04:28.323Z,0.90
2022-12-25T16:06:56.456Z,0.60
2022-12-25T16:09:23.593Z,0.88
2022-12-25T16:11:50.935Z,0.40
2022-12-25T16:14:19.670Z,0.60
2022-12-25T16:16:46.881Z,0.55
2022-12-25T16:19:14.169Z,0.63
2022-12-25T16:21:46.525Z,0.60
2022-12-25T16:24:14.421Z,0.68
2022-12-25T16:26:42.242Z,0.60
2022-12-25T16:29:09.868Z,0.40
2022-12-25T16:31:37.952Z,0.40
2022-12-25T16:34:06.575Z,0.52
2022-12-25T16:36:34.431Z,0.65
2022-12-25T16:39:01.793Z,0.50
2022-12-25T16:41:29.038Z,0.50
2022-12-25T16:43:56.200Z,0.50
2022-12-25T16:46:23.617Z,0.52
2022-12-25T16:48:50.900Z,0.98
2022-12-25T16:51:20.284Z,0.77
2022-12-25T16:53:47.555Z,0.60
2022-12-25T16:56:17.130Z,0.60
2022-12-25T16:58:46.772Z,0.57
2022-12-25T17:01:17.059Z,0.40
2022-12-25T17:03:44.800Z,0.75
2022-12-25T17:06:15.902Z,1.08
2022-12-25T17:08:43.514Z,1.80
2022-12-25T17:11:11.079Z,3.65
2022-12-25T17:13:38.396Z,1.52
2022-12-25T17:16:33.696Z,2.83
2022-12-25T17:19:04.501Z,1.80
2022-12-25T17:21:34.347Z,0.80
2022-12-25T17:24:04.055Z,1.10
2022-12-25T17:26:32.639Z,0.90
2022-12-25T17:29:00.443Z,1.77
2022-12-25T17:31:28.167Z,0.90
2022-12-25T17:33:55.346Z,1.00
2022-12-25T17:36:23.226Z,1.50
2022-12-25T17:38:50.395Z,0.70
2022-12-25T17:41:19.397Z,0.70
2022-12-25T17:43:47.458Z,0.85
2022-12-25T17:46:17.619Z,0.60
2022-12-25T17:48:45.354Z,0.80
2022-12-25T17:51:16.344Z,0.90
2022-12-25T17:53:46.042Z,0.50
2022-12-25T17:56:14.147Z,1.15
2022-12-25T17:58:42.201Z,0.70
2022-12-25T18:01:13.060Z,0.60
2022-12-25T18:03:40.830Z,0.50
2022-12-25T18:06:12.508Z,0.50
2022-12-25T18:08:41.179Z,0.80
2022-12-25T18:11:11.731Z,0.80
2022-12-25T18:13:40.592Z,0.90
2022-12-25T18:16:08.560Z,0.55
2022-12-25T18:18:36.203Z,0.60
2022-12-25T18:21:03.630Z,0.80
2022-12-25T18:23:31.129Z,3.35
2022-12-25T18:26:05.953Z,1.20
2022-12-25T18:28:33.945Z,0.90
2022-12-25T18:31:01.385Z,0.70
2022-12-25T18:33:28.868Z,0.90
2022-12-25T18:36:00.570Z,1.40
2022-12-25T18:38:27.979Z,1.15
2022-12-25T18:40:56.018Z,1.10
2022-12-25T18:43:52.987Z,1.02
2022-12-25T18:46:10.309Z,0.93
2022-12-25T18:48:38.162Z,0.98
2022-12-25T18:51:11.429Z,1.20
2022-12-25T18:53:38.979Z,6.82
2022-12-25T18:56:09.212Z,2.40
2022-12-25T18:58:38.062Z,3.67
2022-12-25T19:01:18.438Z,3.42
2022-12-25T19:03:46.463Z,6.50
2022-12-25T19:06:25.368Z,4.35
2022-12-25T19:08:53.440Z,3.20
2022-12-25T19:11:20.881Z,3.45
2022-12-25T19:13:48.727Z,1.70
2022-12-25T19:16:17.333Z,2.38
2022-12-25T19:18:45.881Z,3.90
2022-12-25T19:21:13.068Z,2.10
2022-12-25T19:23:40.318Z,1.60
2022-12-25T19:26:09.143Z,1.80
2022-12-25T19:28:37.674Z,1.42
2022-12-25T19:31:10.188Z,1.90
2022-12-25T19:33:40.356Z,1.23
2022-12-25T19:36:10.873Z,2.65
2022-12-25T19:38:38.430Z,1.40
2022-12-25T19:41:17.660Z,1.38
2022-12-25T19:43:49.928Z,1.50
2022-12-25T19:46:20.967Z,1.73
2022-12-25T19:48:48.498Z,1.35
2022-12-25T19:51:24.669Z,1.88
2022-12-25T19:53:52.219Z,1.45
2022-12-25T19:56:19.592Z,1.10
2022-12-25T19:58:46.770Z,1.08
2022-12-25T20:01:20.433Z,1.02
2022-12-25T20:03:48.550Z,1.02
2022-12-25T20:06:21.917Z,1.02
2022-12-25T20:08:57.673Z,1.20
2022-12-25T20:11:27.402Z,0.70
2022-12-25T20:13:54.931Z,1.15
2022-12-25T20:16:23.030Z,1.10
2022-12-25T20:18:50.509Z,1.30
2022-12-25T20:21:21.350Z,1.60
2022-12-25T20:23:50.736Z,1.63
2022-12-25T20:26:20.327Z,1.70
2022-12-25T20:28:47.601Z,1.52
2022-12-25T20:31:16.589Z,2.75
2022-12-25T20:33:44.345Z,1.98
2022-12-25T20:36:12.898Z,3.17
2022-12-25T20:38:40.274Z,5.22
2022-12-25T20:41:29.645Z,3.47
2022-12-25T20:43:57.577Z,3.15
2022-12-25T20:46:25.802Z,2.15
2022-12-25T20:48:53.526Z,2.70
2022-12-25T20:51:23.182Z,2.83
2022-12-25T20:53:51.192Z,1.63
2022-12-25T20:56:20.640Z,1.40
2022-12-25T20:58:48.084Z,1.67
2022-12-25T21:01:17.962Z,1.77
2022-12-25T21:03:45.707Z,1.60
2022-12-25T21:06:12.961Z,1.00
2022-12-25T21:08:41.290Z,1.33
2022-12-25T21:11:09.850Z,1.53
2022-12-25T21:13:43.519Z,2.10
2022-12-25T21:16:13.894Z,1.03
2022-12-25T21:18:41.154Z,2.40
2022-12-25T21:21:08.714Z,1.53
2022-12-25T21:23:38.019Z,2.10
2022-12-25T21:26:23.260Z,1.70
2022-12-25T21:28:53.223Z,1.63
2022-12-25T21:31:21.216Z,1.53
2022-12-25T21:33:54.093Z,0.87
2022-12-25T21:36:33.994Z,0.90
2022-12-25T21:39:07.993Z,0.83
2022-12-25T21:41:37.527Z,1.10
2022-12-25T21:44:05.718Z,1.60
2022-12-25T21:46:32.891Z,0.97
2022-12-25T21:49:00.672Z,0.80
2022-12-25T21:51:49.403Z,0.80
2022-12-25T21:54:17.843Z,0.80
2022-12-25T21:56:46.209Z,0.90
2022-12-25T21:59:19.429Z,0.70
2022-12-25T22:01:47.345Z,0.80
2022-12-25T22:04:16.160Z,0.93
2022-12-25T22:07:02.145Z,0.80
2022-12-25T22:09:29.480Z,0.90
2022-12-25T22:12:16.195Z,0.80
2022-12-25T22:14:55.448Z,0.80
2022-12-25T22:17:47.158Z,0.90
2022-12-25T22:20:34.582Z,0.60
2022-12-25T22:23:02.180Z,1.30
2022-12-25T22:25:29.598Z,1.00
2022-12-25T22:27:57.478Z,0.90
2022-12-25T22:30:27.496Z,0.90
2022-12-25T22:32:55.814Z,1.00
2022-12-25T22:35:23.399Z,1.00
2022-12-25T22:37:50.794Z,1.10
2022-12-25T22:40:19.364Z,1.00
2022-12-25T22:42:46.737Z,1.20
2022-12-25T22:45:14.537Z,0.93
2022-12-25T22:47:41.993Z,1.03
2022-12-25T22:50:10.372Z,0.87
2022-12-25T22:52:38.139Z,1.10
2022-12-25T22:55:07.812Z,0.93
2022-12-25T22:57:36.159Z,0.90
2022-12-25T23:00:04.861Z,0.93
2022-12-25T23:02:32.302Z,0.80
2022-12-25T23:04:59.533Z,0.87
2022-12-25T23:07:26.590Z,1.20
2022-12-25T23:09:53.980Z,1.03
2022-12-25T23:12:53.063Z,0.90
2022-12-25T23:15:20.279Z,1.03
2022-12-25T23:18:05.715Z,0.80
2022-12-25T23:20:51.659Z,1.07
2022-12-25T23:23:37.353Z,1.03
2022-12-25T23:26:08.575Z,0.70
2022-12-25T23:28:55.860Z,1.47
2022-12-25T23:31:32.158Z,0.90
2022-12-25T23:34:00.044Z,0.50
2022-12-25T23:36:27.550Z,1.10
2022-12-25T23:38:54.718Z,0.90
2022-12-25T23:41:22.171Z,0.63
2022-12-25T23:43:49.609Z,0.63
2022-12-25T23:46:17.052Z,0.90
2022-12-25T23:48:44.217Z,0.90
2022-12-25T23:51:11.372Z,0.70
2022-12-25T23:53:38.451Z,1.23
2022-12-25T23:56:06.071Z,0.53
2022-12-25T23:58:34.676Z,0.70
